ESGR/KVB METAR and TAF weather

Enter ICAO airport designator
Station Type Date Time Source
ESGR METAR 2019/04/26 03:50 UTC NOAA

ESGR 260350Z AUTO 00000KT 9999 BKN055/// 03/02 Q1015


Station Type Date Time Source
ESGR Decoded METAR 2019/04/26 03:50 UTC NOAA

Skovde Flygplats, Sweden (ESGR) 58-27N 013-58E 105M
Apr 25, 2019 - 11:50 PM EDT / 2019.04.26 0350 UTC
Wind: Calm:0
Visibility: greater than 7 mile(s):0
Sky conditions: mostly cloudy
Temperature: 37 F (3 C)
Dew Point: 35 F (2 C)
Relative Humidity: 93%
Pressure (altimeter): 29.97 in. Hg (1015 hPa)
ob: ESGR 260350Z AUTO 00000KT 9999 BKN055/// 03/02 Q1015
cycle: 4

Station Type Date Time Source
ESGR TAF 2009/06/28 04:50 UTC NOAA

METAR ESGR 280450Z AUTO VRB02KT 9999NDV NCD 17/12 Q1020

Example: see airport list